Time;durP1;ratioP1;P1;durP2;ratioP2;P2;SDS_P1;SDS_P2;PMS_P1;PMS_P2;Temp;Humidity;BMP_temperature;BMP_pressure;BME280_temperature;BME280_humidity;BME280_pressure;Samples;Min_cycle;Max_cycle;Signal;HPM_P1;HPM_P2
2022/09/12 00:00:46;;;;;;;28.07;17.00;;;;;;;;;;5033926;28;20527;-47
2022/09/12 00:03:12;;;;;;;30.13;16.73;;;;;;;;;;5043901;28;20408;-49
2022/09/12 00:05:45;;;;;;;31.17;19.07;;;;;;;;;;5052844;28;20814;-50
2022/09/12 00:08:11;;;;;;;29.73;17.80;;;;;;;;;;5043164;28;20442;-50
2022/09/12 00:10:38;;;;;;;34.43;17.93;;;;;;;;;;5034000;28;20400;-50
2022/09/12 00:13:04;;;;;;;27.60;17.77;;;;;;;;;;5041449;28;20462;-50
2022/09/12 00:15:30;;;;;;;31.23;18.20;;;;;;;;;;5053073;28;20458;-49
2022/09/12 00:17:56;;;;;;;23.97;17.00;;;;;;;;;;5045908;28;20416;-48
2022/09/12 00:20:22;;;;;;;30.43;17.07;;;;;;;;;;5033485;28;21074;-50
2022/09/12 00:22:48;;;;;;;29.80;17.23;;;;;;;;;;5038917;28;20831;-51
2022/09/12 00:25:14;;;;;;;28.53;18.20;;;;;;;;;;5052857;28;20412;-49
2022/09/12 00:27:40;;;;;;;30.63;19.07;;;;;;;;;;5048100;28;20458;-51
2022/09/12 00:30:06;;;;;;;29.90;17.30;;;;;;;;;;5033369;28;20493;-49
2022/09/12 00:32:32;;;;;;;25.57;18.80;;;;;;;;;;5035337;28;20444;-50
2022/09/12 00:34:58;;;;;;;36.83;20.50;;;;;;;;;;5052865;28;20411;-50
2022/09/12 00:37:24;;;;;;;35.60;20.27;;;;;;;;;;5051046;28;20425;-49
2022/09/12 00:39:50;;;;;;;30.70;20.27;;;;;;;;;;5032862;28;20434;-48
2022/09/12 00:42:16;;;;;;;34.50;21.00;;;;;;;;;;5032868;28;20384;-48
2022/09/12 00:44:43;;;;;;;38.53;19.57;;;;;;;;;;5052814;28;20408;-50
2022/09/12 00:47:39;;;;;;;50.93;17.73;;;;;;;;;;5052729;28;20436;-50
2022/09/12 00:50:07;;;;;;;27.57;17.27;;;;;;;;;;5028212;28;20899;-48
2022/09/12 00:52:39;;;;;;;33.27;17.70;;;;;;;;;;5033634;28;20493;-51
2022/09/12 00:55:05;;;;;;;27.53;17.40;;;;;;;;;;5052666;28;20741;-49
2022/09/12 00:57:37;;;;;;;25.70;16.60;;;;;;;;;;5051563;28;20421;-48
2022/09/12 01:00:18;;;;;;;29.23;19.10;;;;;;;;;;5032730;28;20403;-49
2022/09/12 01:02:46;;;;;;;30.90;18.57;;;;;;;;;;5033171;28;20813;-49
2022/09/12 01:05:12;;;;;;;24.63;17.87;;;;;;;;;;5051218;28;20885;-48
2022/09/12 01:07:39;;;;;;;30.67;18.37;;;;;;;;;;5051128;28;20511;-49
2022/09/12 01:10:06;;;;;;;33.43;18.60;;;;;;;;;;5052533;28;20747;-50
2022/09/12 01:12:33;;;;;;;26.57;18.60;;;;;;;;;;5032456;28;20842;-51
2022/09/12 01:14:59;;;;;;;26.97;18.33;;;;;;;;;;5032306;28;20377;-49
2022/09/12 01:17:32;;;;;;;28.73;17.40;;;;;;;;;;5049259;28;20426;-51
2022/09/12 01:20:13;;;;;;;25.27;17.03;;;;;;;;;;5052337;28;20837;-50
2022/09/12 01:23:02;;;;;;;25.20;17.50;;;;;;;;;;5031726;28;20467;-49
2022/09/12 01:25:32;;;;;;;24.97;17.40;;;;;;;;;;5032575;28;20405;-48
2022/09/12 01:28:01;;;;;;;23.63;16.87;;;;;;;;;;5052211;28;20416;-50
2022/09/12 01:30:44;;;;;;;28.90;17.20;;;;;;;;;;5052103;28;20426;-50
2022/09/12 01:33:16;;;;;;;29.00;17.37;;;;;;;;;;5030995;28;20867;-48
2022/09/12 01:35:45;;;;;;;28.87;17.47;;;;;;;;;;5032429;28;20445;-49
2022/09/12 01:38:29;;;;;;;23.70;16.60;;;;;;;;;;5051708;28;20739;-50
2022/09/12 01:41:01;;;;;;;28.60;17.97;;;;;;;;;;5048006;28;20413;-49
2022/09/12 01:43:30;;;;;;;29.30;17.10;;;;;;;;;;5031606;28;20789;-50
2022/09/12 01:46:07;;;;;;;28.77;17.33;;;;;;;;;;5034437;28;20470;-51
2022/09/12 01:48:35;;;;;;;32.00;17.70;;;;;;;;;;5051720;28;20419;-49
2022/09/12 01:51:20;;;;;;;28.27;17.10;;;;;;;;;;5048484;28;20418;-50
2022/09/12 01:53:51;;;;;;;30.33;18.23;;;;;;;;;;5031158;28;20465;-49
2022/09/12 01:56:24;;;;;;;24.13;15.77;;;;;;;;;;5035824;28;20404;-49
2022/09/12 01:58:54;;;;;;;24.60;17.47;;;;;;;;;;5051535;28;20405;-49
2022/09/12 02:01:28;;;;;;;25.53;15.07;;;;;;;;;;5045806;28;20421;-49
2022/09/12 02:03:57;;;;;;;32.27;17.40;;;;;;;;;;5031263;28;20717;-50
2022/09/12 02:06:26;;;;;;;24.50;16.60;;;;;;;;;;5036182;28;20419;-51
2022/09/12 02:08:55;;;;;;;31.20;16.70;;;;;;;;;;5051652;28;20390;-50
2022/09/12 02:11:21;;;;;;;31.57;17.53;;;;;;;;;;5046883;28;20423;-49
2022/09/12 02:13:55;;;;;;;31.60;16.90;;;;;;;;;;5029781;28;20467;-50
2022/09/12 02:16:25;;;;;;;27.33;15.77;;;;;;;;;;5034766;28;20439;-49
2022/09/12 02:19:00;;;;;;;27.80;17.60;;;;;;;;;;5051452;28;20395;-48
2022/09/12 02:21:28;;;;;;;24.53;16.57;;;;;;;;;;5046622;28;20420;-50
2022/09/12 02:23:56;;;;;;;23.67;15.60;;;;;;;;;;5030861;28;20401;-51
2022/09/12 02:26:30;;;;;;;30.53;16.27;;;;;;;;;;5034296;28;20416;-50
2022/09/12 02:28:56;;;;;;;24.93;16.43;;;;;;;;;;5051509;28;20373;-49
2022/09/12 02:31:27;;;;;;;24.37;16.97;;;;;;;;;;5048358;28;20394;-51
2022/09/12 02:34:11;;;;;;;29.43;16.03;;;;;;;;;;5030874;28;20521;-51
2022/09/12 02:36:49;;;;;;;25.23;16.60;;;;;;;;;;5034801;28;20422;-50
2022/09/12 02:39:18;;;;;;;29.00;16.77;;;;;;;;;;5051297;28;20482;-48
2022/09/12 02:41:45;;;;;;;27.40;17.20;;;;;;;;;;5045252;28;20432;-48
2022/09/12 02:44:11;;;;;;;26.27;17.33;;;;;;;;;;5031526;28;20911;-49
2022/09/12 02:46:45;;;;;;;33.13;18.60;;;;;;;;;;5038447;28;20504;-47
2022/09/12 02:49:12;;;;;;;27.50;16.50;;;;;;;;;;5055107;28;20461;-48
2022/09/12 02:51:38;;;;;;;29.50;17.10;;;;;;;;;;5049848;28;20425;-47
2022/09/12 02:54:06;;;;;;;24.13;14.80;;;;;;;;;;5033225;28;20457;-48
2022/09/12 02:56:32;;;;;;;24.93;15.00;;;;;;;;;;5035401;28;20427;-49
2022/09/12 02:59:01;;;;;;;22.10;15.10;;;;;;;;;;5054426;28;20372;-47
2022/09/12 03:01:48;;;;;;;24.87;16.00;;;;;;;;;;5051922;28;20379;-49
2022/09/12 03:04:43;;;;;;;21.73;14.63;;;;;;;;;;5034853;28;20407;-48
2022/09/12 03:07:12;;;;;;;19.40;13.20;;;;;;;;;;5019344;28;20440;-49
2022/09/12 03:09:41;;;;;;;21.57;13.93;;;;;;;;;;5034795;28;20419;-51
2022/09/12 03:12:30;;;;;;;22.63;14.30;;;;;;;;;;5039877;28;20458;-49
2022/09/12 03:15:15;;;;;;;20.70;14.40;;;;;;;;;;5054394;28;20437;-50
2022/09/12 03:17:54;;;;;;;19.70;13.40;;;;;;;;;;5044640;28;20772;-50
2022/09/12 03:20:37;;;;;;;20.17;14.87;;;;;;;;;;5034652;28;20797;-49
2022/09/12 03:23:04;;;;;;;20.60;14.37;;;;;;;;;;5047231;28;20393;-49
2022/09/12 03:25:34;;;;;;;28.60;14.60;;;;;;;;;;5054509;28;20460;-49
2022/09/12 03:28:04;;;;;;;23.27;15.77;;;;;;;;;;5045512;28;20502;-50
2022/09/12 03:30:30;;;;;;;22.63;15.37;;;;;;;;;;5051053;28;20430;-51
2022/09/12 03:32:56;;;;;;;21.23;14.40;;;;;;;;;;5053787;28;20952;-50
2022/09/12 03:35:23;;;;;;;27.17;15.13;;;;;;;;;;5054036;28;20604;-48
2022/09/12 03:37:50;;;;;;;20.50;14.20;;;;;;;;;;5053719;28;20419;-49
2022/09/12 03:40:16;;;;;;;19.73;14.07;;;;;;;;;;5054292;28;20401;-51
2022/09/12 03:42:42;;;;;;;21.83;14.60;;;;;;;;;;5046099;28;20445;-50
2022/09/12 03:45:08;;;;;;;21.57;14.73;;;;;;;;;;5033961;28;20416;-49
2022/09/12 03:47:34;;;;;;;32.80;14.27;;;;;;;;;;5040620;28;20493;-50
2022/09/12 03:50:01;;;;;;;21.27;14.70;;;;;;;;;;5054049;28;20767;-51
2022/09/12 03:52:27;;;;;;;24.83;14.20;;;;;;;;;;5048050;28;20455;-51
2022/09/12 03:54:53;;;;;;;26.73;13.60;;;;;;;;;;5033447;28;20514;-51
2022/09/12 03:57:19;;;;;;;19.73;13.73;;;;;;;;;;5037168;28;20407;-49
2022/09/12 03:59:45;;;;;;;22.50;14.37;;;;;;;;;;5053831;28;20870;-50
2022/09/12 04:02:12;;;;;;;24.20;14.07;;;;;;;;;;5051161;28;20424;-50
2022/09/12 04:04:42;;;;;;;24.87;14.40;;;;;;;;;;5033810;28;20417;-45
2022/09/12 04:07:08;;;;;;;22.93;13.30;;;;;;;;;;5035268;28;20438;-50
2022/09/12 04:09:33;;;;;;;27.87;14.40;;;;;;;;;;5053725;28;20415;-45
2022/09/12 04:12:00;;;;;;;19.07;12.60;;;;;;;;;;5052695;28;20391;-46
2022/09/12 04:14:26;;;;;;;20.23;13.30;;;;;;;;;;5033564;28;20384;-44
2022/09/12 04:16:52;;;;;;;18.50;13.43;;;;;;;;;;5033564;28;20432;-44
2022/09/12 04:19:18;;;;;;;24.37;14.57;;;;;;;;;;5052101;28;20784;-46
2022/09/12 04:21:44;;;;;;;18.60;12.60;;;;;;;;;;5052924;28;20414;-47
2022/09/12 04:24:10;;;;;;;19.70;13.43;;;;;;;;;;5036078;28;20444;-44
2022/09/12 04:26:36;;;;;;;20.20;12.97;;;;;;;;;;5033202;28;20430;-44
2022/09/12 04:29:02;;;;;;;23.33;14.20;;;;;;;;;;5049817;28;20424;-44
2022/09/12 04:31:28;;;;;;;19.97;12.33;;;;;;;;;;5053022;28;20410;-44
2022/09/12 04:33:58;;;;;;;20.20;12.67;;;;;;;;;;5037889;28;20908;-44
2022/09/12 04:36:24;;;;;;;18.83;12.87;;;;;;;;;;5032997;28;20513;-44
2022/09/12 04:38:51;;;;;;;19.30;12.40;;;;;;;;;;5046547;28;20419;-44
2022/09/12 04:41:21;;;;;;;27.90;15.60;;;;;;;;;;5052788;28;20891;-44
2022/09/12 04:43:50;;;;;;;23.43;15.13;;;;;;;;;;5039887;28;20510;-44
2022/09/12 04:46:19;;;;;;;20.43;15.10;;;;;;;;;;5032997;28;20423;-44
2022/09/12 04:48:45;;;;;;;22.57;13.17;;;;;;;;;;5045363;28;20860;-44
2022/09/12 04:51:19;;;;;;;21.10;13.40;;;;;;;;;;5052682;28;20787;-44
2022/09/12 04:53:48;;;;;;;23.03;13.87;;;;;;;;;;5040009;28;20490;-44
2022/09/12 04:56:14;;;;;;;19.17;14.00;;;;;;;;;;5032545;28;20979;-44
2022/09/12 04:58:40;;;;;;;28.40;15.90;;;;;;;;;;5043211;28;20507;-44
2022/09/12 05:01:07;;;;;;;22.73;15.10;;;;;;;;;;5052346;28;20893;-44
2022/09/12 05:03:34;;;;;;;20.27;14.83;;;;;;;;;;5042571;28;20432;-44
2022/09/12 05:06:03;;;;;;;19.87;15.10;;;;;;;;;;5032482;28;20430;-45
2022/09/12 05:08:29;;;;;;;23.13;14.60;;;;;;;;;;5041491;28;20434;-45
2022/09/12 05:10:55;;;;;;;22.80;15.10;;;;;;;;;;5052707;28;20409;-44
2022/09/12 05:13:21;;;;;;;22.40;14.30;;;;;;;;;;5043978;28;20840;-45
2022/09/12 05:15:56;;;;;;;19.10;13.07;;;;;;;;;;5032221;28;20438;-44
2022/09/12 05:18:22;;;;;;;19.70;13.93;;;;;;;;;;5039553;28;20836;-45
2022/09/12 05:20:49;;;;;;;20.70;13.30;;;;;;;;;;5052416;28;20480;-47
2022/09/12 05:23:15;;;;;;;20.63;14.03;;;;;;;;;;5045839;28;20562;-45
2022/09/12 05:25:47;;;;;;;22.10;13.97;;;;;;;;;;5032320;28;20518;-48
2022/09/12 05:28:13;;;;;;;18.03;12.50;;;;;;;;;;5038495;28;20758;-44
2022/09/12 05:30:39;;;;;;;19.07;13.40;;;;;;;;;;5052159;28;20418;-45
2022/09/12 05:33:05;;;;;;;18.30;11.73;;;;;;;;;;5047214;28;20430;-46
2022/09/12 05:35:32;;;;;;;17.77;12.40;;;;;;;;;;5031893;28;20945;-47
2022/09/12 05:37:58;;;;;;;21.60;11.77;;;;;;;;;;5034464;28;20482;-46
2022/09/12 05:40:24;;;;;;;15.90;11.80;;;;;;;;;;5052203;28;20439;-47
2022/09/12 05:42:50;;;;;;;16.07;10.83;;;;;;;;;;5050662;28;20440;-44
2022/09/12 05:45:15;;;;;;;16.47;12.30;;;;;;;;;;5031695;28;20455;-44
2022/09/12 05:47:42;;;;;;;20.03;11.70;;;;;;;;;;5032017;28;20410;-44
2022/09/12 05:50:10;;;;;;;18.23;11.43;;;;;;;;;;5032090;28;20457;-47
2022/09/12 05:52:36;;;;;;;17.77;11.57;;;;;;;;;;5031509;28;20490;-44
2022/09/12 05:55:03;;;;;;;17.17;12.07;;;;;;;;;;5049591;28;20430;-45
2022/09/12 05:57:29;;;;;;;23.53;11.87;;;;;;;;;;5051730;28;20420;-47
2022/09/12 05:59:55;;;;;;;14.10;10.70;;;;;;;;;;5035316;28;20424;-44
2022/09/12 06:02:21;;;;;;;18.67;12.43;;;;;;;;;;5038480;28;20455;-45
2022/09/12 06:04:47;;;;;;;19.80;13.23;;;;;;;;;;5050484;28;20875;-45
2022/09/12 06:07:13;;;;;;;17.90;12.57;;;;;;;;;;5051289;28;20481;-44
2022/09/12 06:09:39;;;;;;;14.00;10.80;;;;;;;;;;5037018;28;20448;-44
2022/09/12 06:12:06;;;;;;;17.40;11.23;;;;;;;;;;5032191;28;20422;-44
2022/09/12 06:14:32;;;;;;;16.77;11.50;;;;;;;;;;5051439;28;20403;-48
2022/09/12 06:16:58;;;;;;;17.40;13.00;;;;;;;;;;5050910;28;20405;-46
2022/09/12 06:19:26;;;;;;;14.33;12.00;;;;;;;;;;5053206;28;20386;-44
2022/09/12 06:21:52;;;;;;;22.20;12.53;;;;;;;;;;5055270;28;20400;-44
2022/09/12 06:24:19;;;;;;;19.70;11.07;;;;;;;;;;5036989;28;20421;-44
2022/09/12 06:26:46;;;;;;;13.70;10.60;;;;;;;;;;5035525;28;20811;-47
2022/09/12 06:29:12;;;;;;;17.27;10.80;;;;;;;;;;5052402;28;20417;-45
2022/09/12 06:31:40;;;;;;;14.67;10.83;;;;;;;;;;5055417;28;20403;-45
2022/09/12 06:34:07;;;;;;;16.10;11.20;;;;;;;;;;5038244;28;20470;-46
2022/09/12 06:36:36;;;;;;;21.13;12.50;;;;;;;;;;5035141;28;20517;-44
2022/09/12 06:39:06;;;;;;;17.57;11.90;;;;;;;;;;5050250;28;20462;-47
2022/09/12 06:41:32;;;;;;;18.33;11.13;;;;;;;;;;5055125;28;20413;-48
2022/09/12 06:43:59;;;;;;;12.70;9.07;;;;;;;;;;5040406;28;20453;-45
2022/09/12 06:46:25;;;;;;;10.10;9.00;;;;;;;;;;5035975;28;20419;-45
2022/09/12 06:48:51;;;;;;;12.73;8.73;;;;;;;;;;5034924;28;20418;-46
2022/09/12 06:51:21;;;;;;;13.93;9.63;;;;;;;;;;5035813;28;20857;-45
2022/09/12 06:53:48;;;;;;;15.57;10.97;;;;;;;;;;5052600;28;20436;-48
2022/09/12 06:56:15;;;;;;;18.23;10.50;;;;;;;;;;5041215;28;20469;-45
2022/09/12 06:58:42;;;;;;;13.33;9.77;;;;;;;;;;5041623;28;20439;-48
2022/09/12 07:01:10;;;;;;;11.10;8.63;;;;;;;;;;5055074;28;20428;-49
2022/09/12 07:03:37;;;;;;;13.30;9.90;;;;;;;;;;5047136;28;20896;-47
2022/09/12 07:06:07;;;;;;;11.70;9.03;;;;;;;;;;5034728;28;20511;-47
2022/09/12 07:08:34;;;;;;;13.43;9.73;;;;;;;;;;5040473;28;20988;-47
2022/09/12 07:11:07;;;;;;;11.43;9.30;;;;;;;;;;5047408;28;20391;-47
2022/09/12 07:13:33;;;;;;;11.93;8.83;;;;;;;;;;5048061;28;20457;-48
2022/09/12 07:16:06;;;;;;;10.57;8.40;;;;;;;;;;5043921;28;20412;-45
2022/09/12 07:18:33;;;;;;;9.73;7.90;;;;;;;;;;5038377;28;20388;-45
2022/09/12 07:21:00;;;;;;;13.00;8.67;;;;;;;;;;5054095;28;20397;-45
2022/09/12 07:23:26;;;;;;;14.07;8.37;;;;;;;;;;5049906;28;20427;-45
2022/09/12 07:25:53;;;;;;;11.30;8.30;;;;;;;;;;5033341;28;20448;-45
2022/09/12 07:28:19;;;;;;;13.73;8.93;;;;;;;;;;5035170;28;20426;-48
2022/09/12 07:30:45;;;;;;;11.50;8.50;;;;;;;;;;5051278;28;20554;-48
2022/09/12 07:33:11;;;;;;;13.70;8.43;;;;;;;;;;5051827;28;20523;-46
2022/09/12 07:35:37;;;;;;;13.03;9.20;;;;;;;;;;5033307;28;20397;-46
2022/09/12 07:38:03;;;;;;;9.80;8.30;;;;;;;;;;5033416;28;20384;-48
2022/09/12 07:40:29;;;;;;;15.43;8.33;;;;;;;;;;5049603;28;20462;-47
2022/09/12 07:42:55;;;;;;;8.60;7.80;;;;;;;;;;5052285;28;20406;-47
2022/09/12 07:45:21;;;;;;;15.20;9.00;;;;;;;;;;5052882;28;20425;-47
2022/09/12 07:47:47;;;;;;;12.47;8.23;;;;;;;;;;5053982;28;20405;-49
2022/09/12 07:50:13;;;;;;;10.07;8.60;;;;;;;;;;5036136;28;20442;-48
2022/09/12 07:52:38;;;;;;;11.30;9.00;;;;;;;;;;5033515;28;20451;-47
2022/09/12 07:55:05;;;;;;;13.30;8.93;;;;;;;;;;5048287;28;20947;-48
2022/09/12 07:57:31;;;;;;;11.87;9.50;;;;;;;;;;5053515;28;20436;-47
2022/09/12 07:59:57;;;;;;;18.87;9.73;;;;;;;;;;5051525;28;20419;-47
2022/09/12 08:02:23;;;;;;;12.13;8.83;;;;;;;;;;5053202;28;20971;-50
2022/09/12 08:04:50;;;;;;;11.10;7.70;;;;;;;;;;5041362;28;20427;-50
2022/09/12 08:07:17;;;;;;;10.50;8.00;;;;;;;;;;5049221;28;20853;-51
2022/09/12 08:09:44;;;;;;;10.43;9.33;;;;;;;;;;5042317;28;20423;-50
2022/09/12 08:12:10;;;;;;;11.20;8.60;;;;;;;;;;5033183;28;20400;-50
2022/09/12 08:14:36;;;;;;;12.03;8.13;;;;;;;;;;5034574;28;20418;-51
2022/09/12 08:17:02;;;;;;;12.93;8.70;;;;;;;;;;5033264;28;20438;-49
2022/09/12 08:19:28;;;;;;;14.97;8.70;;;;;;;;;;5040156;28;20783;-49
2022/09/12 08:21:53;;;;;;;11.90;8.17;;;;;;;;;;5052955;28;20403;-51
2022/09/12 08:24:19;;;;;;;16.33;8.87;;;;;;;;;;5049875;28;20429;-51
2022/09/12 08:26:45;;;;;;;12.03;8.67;;;;;;;;;;5043415;28;20432;-51
2022/09/12 08:29:11;;;;;;;9.00;6.93;;;;;;;;;;5051827;28;20500;-50
2022/09/12 08:31:37;;;;;;;8.23;7.33;;;;;;;;;;5052888;28;20396;-50
2022/09/12 08:34:04;;;;;;;10.40;7.83;;;;;;;;;;5049953;28;20974;-50
2022/09/12 08:36:30;;;;;;;8.67;7.83;;;;;;;;;;5032956;28;20845;-50
2022/09/12 08:39:00;;;;;;;8.20;7.37;;;;;;;;;;5033546;28;20898;-50
2022/09/12 08:41:37;;;;;;;10.07;7.33;;;;;;;;;;5052265;28;20397;-50
2022/09/12 08:44:10;;;;;;;9.87;7.80;;;;;;;;;;5049868;28;20505;-51
2022/09/12 08:46:56;;;;;;;9.83;7.77;;;;;;;;;;5032721;28;20513;-48
2022/09/12 08:49:27;;;;;;;9.37;8.37;;;;;;;;;;5036162;28;20510;-50
2022/09/12 08:51:54;;;;;;;11.53;7.73;;;;;;;;;;5051868;28;20654;-50
2022/09/12 08:54:23;;;;;;;9.63;7.90;;;;;;;;;;5048912;28;20437;-50
2022/09/12 08:56:49;;;;;;;10.57;7.60;;;;;;;;;;5032647;28;20417;-50
2022/09/12 08:59:15;;;;;;;10.07;7.43;;;;;;;;;;5034669;28;20391;-50
2022/09/12 09:01:43;;;;;;;10.10;8.00;;;;;;;;;;5052114;28;20406;-47
2022/09/12 09:04:16;;;;;;;8.73;7.70;;;;;;;;;;5050286;28;20881;-48
2022/09/12 09:07:02;;;;;;;8.67;7.30;;;;;;;;;;5035810;28;20443;-49
2022/09/12 09:09:35;;;;;;;9.20;7.37;;;;;;;;;;5040346;28;20796;-49
2022/09/12 09:12:06;;;;;;;9.63;6.93;;;;;;;;;;5031933;28;20408;-51
2022/09/12 09:14:47;;;;;;;10.43;7.40;;;;;;;;;;5036160;28;20402;-49
2022/09/12 09:17:19;;;;;;;7.90;7.10;;;;;;;;;;5050133;28;20947;-51
2022/09/12 09:19:48;;;;;;;10.07;7.20;;;;;;;;;;5051537;28;20402;-50
2022/09/12 09:22:32;;;;;;;7.20;6.50;;;;;;;;;;5051683;28;20401;-51
2022/09/12 09:25:01;;;;;;;6.90;6.30;;;;;;;;;;5044434;28;20452;-50
2022/09/12 09:27:46;;;;;;;8.90;6.10;;;;;;;;;;5031945;28;20968;-48
2022/09/12 09:30:20;;;;;;;8.03;7.00;;;;;;;;;;5040111;28;20409;-50
2022/09/12 09:32:52;;;;;;;6.67;6.07;;;;;;;;;;5051395;28;20457;-49
2022/09/12 09:35:31;;;;;;;7.93;6.33;;;;;;;;;;5042189;28;20457;-49
2022/09/12 09:38:01;;;;;;;5.33;4.83;;;;;;;;;;5032459;28;20426;-50
2022/09/12 09:40:38;;;;;;;6.83;5.60;;;;;;;;;;5040807;28;20425;-51
2022/09/12 09:43:21;;;;;;;7.87;6.07;;;;;;;;;;5051172;28;20425;-51
2022/09/12 09:45:48;;;;;;;5.30;4.80;;;;;;;;;;5038732;28;20500;-50
2022/09/12 09:48:31;;;;;;;5.40;4.90;;;;;;;;;;5031690;28;20433;-50
2022/09/12 09:50:59;;;;;;;4.93;4.40;;;;;;;;;;5044752;28;20924;-51
2022/09/12 09:53:29;;;;;;;7.00;5.50;;;;;;;;;;5050698;28;20455;-50
2022/09/12 09:55:56;;;;;;;7.00;5.40;;;;;;;;;;5038820;28;20430;-50
2022/09/12 09:58:28;;;;;;;5.07;4.57;;;;;;;;;;5031581;28;20402;-51
2022/09/12 10:00:58;;;;;;;5.20;4.70;;;;;;;;;;5043237;28;20772;-50
2022/09/12 10:03:27;;;;;;;4.20;3.90;;;;;;;;;;5050909;28;20918;-49
2022/09/12 10:05:58;;;;;;;4.80;3.70;;;;;;;;;;5039394;28;20558;-47
2022/09/12 10:08:25;;;;;;;3.80;3.50;;;;;;;;;;5031477;28;20463;-46
2022/09/12 10:10:56;;;;;;;3.30;3.10;;;;;;;;;;5037906;28;20500;-46
2022/09/12 10:13:24;;;;;;;4.77;4.37;;;;;;;;;;5042423;28;20456;-52
2022/09/12 10:15:57;;;;;;;3.27;3.07;;;;;;;;;;5042377;28;20452;-50
2022/09/12 10:18:33;;;;;;;6.37;4.20;;;;;;;;;;5031248;28;20410;-49
2022/09/12 10:21:00;;;;;;;3.67;3.37;;;;;;;;;;5048918;28;20428;-49
2022/09/12 10:23:39;;;;;;;3.20;2.97;;;;;;;;;;5045750;28;20475;-50
2022/09/12 10:26:09;;;;;;;3.77;3.37;;;;;;;;;;5048144;28;20429;-48
2022/09/12 10:28:38;;;;;;;3.07;2.57;;;;;;;;;;5044413;28;20944;-48
2022/09/12 10:31:04;;;;;;;4.43;4.03;;;;;;;;;;5040390;28;20421;-51
2022/09/12 10:33:33;;;;;;;3.23;3.03;;;;;;;;;;5043413;28;20464;-49
2022/09/12 10:36:00;;;;;;;4.03;3.60;;;;;;;;;;5042777;28;20435;-51
2022/09/12 10:38:31;;;;;;;7.17;4.67;;;;;;;;;;5034741;28;20422;-50
2022/09/12 10:41:02;;;;;;;2.60;2.27;;;;;;;;;;5030992;28;20402;-50
2022/09/12 10:43:36;;;;;;;2.90;2.70;;;;;;;;;;5040691;28;20441;-52
2022/09/12 10:46:14;;;;;;;3.00;2.80;;;;;;;;;;5040542;28;20541;-50
2022/09/12 10:48:40;;;;;;;3.20;2.60;;;;;;;;;;5047502;28;20500;-49
2022/09/12 10:51:14;;;;;;;3.07;2.77;;;;;;;;;;5051216;28;20401;-48
2022/09/12 10:53:42;;;;;;;3.33;2.37;;;;;;;;;;5050705;28;20802;-50
2022/09/12 10:56:09;;;;;;;3.67;3.17;;;;;;;;;;5042260;28;20520;-48
2022/09/12 10:58:41;;;;;;;10.63;2.50;;;;;;;;;;5038786;28;20424;-48
2022/09/12 11:01:26;;;;;;;4.97;2.17;;;;;;;;;;5034282;28;20402;-46
2022/09/12 11:03:52;;;;;;;2.20;2.10;;;;;;;;;;5034312;28;20436;-48
2022/09/12 11:06:20;;;;;;;4.70;2.50;;;;;;;;;;5050743;28;20425;-48
2022/09/12 11:08:50;;;;;;;2.47;2.27;;;;;;;;;;5048760;28;20445;-48
2022/09/12 11:11:36;;;;;;;2.30;2.10;;;;;;;;;;5034453;28;20454;-48
2022/09/12 11:14:07;;;;;;;3.97;2.43;;;;;;;;;;5049685;28;20456;-48
2022/09/12 11:16:47;;;;;;;3.20;3.00;;;;;;;;;;5051543;28;20524;-49
2022/09/12 11:19:19;;;;;;;2.63;2.50;;;;;;;;;;5052463;28;20424;-48
2022/09/12 11:21:58;;;;;;;4.17;2.73;;;;;;;;;;5049853;28;20529;-48
2022/09/12 11:24:30;;;;;;;2.07;1.97;;;;;;;;;;5034122;28;20417;-48
2022/09/12 11:27:09;;;;;;;3.07;2.77;;;;;;;;;;5034011;28;20437;-48
2022/09/12 11:29:40;;;;;;;2.90;2.70;;;;;;;;;;5043533;28;20421;-48
2022/09/12 11:32:27;;;;;;;2.93;2.73;;;;;;;;;;5051186;28;20405;-47
2022/09/12 11:35:12;;;;;;;4.70;2.50;;;;;;;;;;5037129;28;20420;-48
2022/09/12 11:37:47;;;;;;;2.30;2.20;;;;;;;;;;5049713;28;20550;-46
2022/09/12 11:40:19;;;;;;;2.90;2.70;;;;;;;;;;5046699;28;20948;-48
2022/09/12 11:42:47;;;;;;;2.80;2.60;;;;;;;;;;5052937;28;20943;-48
2022/09/12 11:45:16;;;;;;;2.73;2.53;;;;;;;;;;5050503;28;20945;-48
2022/09/12 11:47:44;;;;;;;2.20;2.10;;;;;;;;;;5034889;28;21001;-48
2022/09/12 11:50:22;;;;;;;2.63;2.53;;;;;;;;;;5033549;28;20418;-49
2022/09/12 11:52:49;;;;;;;2.60;2.40;;;;;;;;;;5039312;28;20869;-49
2022/09/12 11:55:17;;;;;;;2.83;2.63;;;;;;;;;;5051588;28;20409;-49
2022/09/12 11:57:44;;;;;;;11.90;2.40;;;;;;;;;;5053297;28;20417;-49
2022/09/12 12:00:19;;;;;;;2.70;2.50;;;;;;;;;;5044324;28;20509;-49
2022/09/12 12:03:21;;;;;;;2.57;2.37;;;;;;;;;;5040305;28;20436;-49
2022/09/12 12:05:55;;;;;;;8.60;2.20;;;;;;;;;;5015847;28;20446;-49
2022/09/12 12:08:22;;;;;;;3.77;2.97;;;;;;;;;;5042241;28;20512;-49
2022/09/12 12:10:48;;;;;;;3.63;2.30;;;;;;;;;;5044029;28;20430;-49
2022/09/12 12:13:14;;;;;;;3.30;2.23;;;;;;;;;;5043589;28;20454;-49
2022/09/12 12:15:45;;;;;;;2.47;2.27;;;;;;;;;;5032828;28;20432;-49
2022/09/12 12:18:16;;;;;;;2.67;2.13;;;;;;;;;;5047124;28;20412;-49
2022/09/12 12:20:42;;;;;;;2.10;1.97;;;;;;;;;;5051222;28;20426;-49
2022/09/12 12:23:21;;;;;;;4.00;2.20;;;;;;;;;;5032519;28;20437;-49
2022/09/12 12:25:52;;;;;;;2.30;2.10;;;;;;;;;;5048992;28;20448;-49
2022/09/12 12:28:37;;;;;;;2.60;2.50;;;;;;;;;;5049379;28;20410;-48
2022/09/12 12:31:04;;;;;;;2.97;2.67;;;;;;;;;;5038303;28;20588;-48
2022/09/12 12:33:30;;;;;;;3.03;2.73;;;;;;;;;;5051797;28;20464;-48
2022/09/12 12:35:59;;;;;;;3.10;2.80;;;;;;;;;;5049269;28;20963;-47
2022/09/12 12:38:32;;;;;;;3.20;2.90;;;;;;;;;;5036209;28;20456;-48
2022/09/12 12:41:16;;;;;;;3.07;2.80;;;;;;;;;;5040945;28;20414;-48
2022/09/12 12:43:42;;;;;;;2.53;2.33;;;;;;;;;;5032256;28;20547;-48
2022/09/12 12:46:10;;;;;;;3.30;2.50;;;;;;;;;;5041636;28;20556;-50
2022/09/12 12:48:44;;;;;;;2.80;2.37;;;;;;;;;;5044004;28;20437;-49
2022/09/12 12:51:22;;;;;;;2.57;2.47;;;;;;;;;;5052714;28;20443;-49
2022/09/12 12:53:49;;;;;;;2.70;2.50;;;;;;;;;;5049963;28;20547;-49
2022/09/12 12:56:29;;;;;;;2.80;2.60;;;;;;;;;;5052119;28;20831;-49
2022/09/12 12:58:59;;;;;;;2.83;2.73;;;;;;;;;;5037011;28;20499;-49
2022/09/12 13:01:25;;;;;;;3.10;2.90;;;;;;;;;;5043234;28;20440;-49
2022/09/12 13:03:55;;;;;;;4.13;2.83;;;;;;;;;;5042509;28;20971;-48
2022/09/12 13:06:33;;;;;;;2.57;2.47;;;;;;;;;;5052149;28;20432;-48
2022/09/12 13:09:02;;;;;;;3.33;2.37;;;;;;;;;;5031998;28;20445;-48
2022/09/12 13:11:29;;;;;;;4.20;2.30;;;;;;;;;;5033630;28;20901;-48
2022/09/12 13:14:19;;;;;;;3.03;2.83;;;;;;;;;;5032231;28;20827;-47
2022/09/12 13:16:53;;;;;;;2.70;2.43;;;;;;;;;;5031482;28;20439;-51
2022/09/12 13:19:29;;;;;;;2.23;2.13;;;;;;;;;;5044938;28;20994;-50
2022/09/12 13:21:56;;;;;;;2.90;2.30;;;;;;;;;;5046634;28;20508;-49
2022/09/12 13:24:23;;;;;;;3.90;2.60;;;;;;;;;;5045550;28;20476;-49
2022/09/12 13:26:49;;;;;;;2.87;2.67;;;;;;;;;;5032234;28;20418;-51
2022/09/12 13:29:19;;;;;;;4.07;2.87;;;;;;;;;;5044896;28;20428;-51
2022/09/12 13:31:50;;;;;;;3.57;2.50;;;;;;;;;;5046292;28;20503;-50
2022/09/12 13:34:27;;;;;;;2.60;2.50;;;;;;;;;;5033597;28;20469;-49
2022/09/12 13:37:12;;;;;;;2.13;2.03;;;;;;;;;;5037035;28;20436;-49
2022/09/12 13:39:43;;;;;;;2.87;2.67;;;;;;;;;;5038698;28;20417;-49
2022/09/12 13:42:28;;;;;;;4.27;2.03;;;;;;;;;;5032543;28;20433;-49
2022/09/12 13:44:54;;;;;;;2.47;2.20;;;;;;;;;;5031372;28;20413;-46
2022/09/12 13:47:26;;;;;;;2.20;2.10;;;;;;;;;;5044476;28;20433;-46
2022/09/12 13:49:52;;;;;;;2.30;2.10;;;;;;;;;;5051445;28;20386;-47
2022/09/12 13:52:20;;;;;;;2.30;2.20;;;;;;;;;;5041930;28;20457;-47
2022/09/12 13:54:48;;;;;;;3.17;2.47;;;;;;;;;;5031665;28;20398;-48
2022/09/12 13:57:32;;;;;;;5.33;2.40;;;;;;;;;;5042549;28;20433;-48
2022/09/12 14:00:00;;;;;;;2.30;2.20;;;;;;;;;;5051144;28;20393;-48
2022/09/12 14:02:28;;;;;;;2.70;2.50;;;;;;;;;;5038171;28;20874;-48
2022/09/12 14:05:10;;;;;;;2.83;2.70;;;;;;;;;;5031822;28;20410;-49
2022/09/12 14:07:45;;;;;;;2.33;2.23;;;;;;;;;;5034739;28;20530;-48
2022/09/12 14:10:15;;;;;;;2.60;2.40;;;;;;;;;;5032236;28;20959;-49
2022/09/12 14:12:42;;;;;;;2.60;2.40;;;;;;;;;;5047958;28;20469;-50
2022/09/12 14:15:16;;;;;;;2.33;2.13;;;;;;;;;;5047829;28;20405;-49
2022/09/12 14:17:50;;;;;;;3.93;3.63;;;;;;;;;;5030804;28;20399;-51
2022/09/12 14:20:17;;;;;;;2.40;2.30;;;;;;;;;;5044389;28;20508;-50
2022/09/12 14:22:43;;;;;;;3.07;2.87;;;;;;;;;;5049893;28;20405;-52
2022/09/12 14:25:28;;;;;;;6.03;2.50;;;;;;;;;;5037756;28;20425;-50
2022/09/12 14:27:55;;;;;;;2.47;2.30;;;;;;;;;;5031398;28;20410;-48
2022/09/12 14:30:21;;;;;;;2.37;2.20;;;;;;;;;;5045054;28;20474;-48
2022/09/12 14:33:04;;;;;;;2.93;2.73;;;;;;;;;;5050676;28;20453;-47
2022/09/12 14:35:31;;;;;;;3.00;2.60;;;;;;;;;;5035741;28;20520;-48
2022/09/12 14:38:04;;;;;;;6.93;2.30;;;;;;;;;;5031386;28;20406;-48
2022/09/12 14:40:30;;;;;;;2.40;2.20;;;;;;;;;;5044687;28;20410;-48
2022/09/12 14:42:56;;;;;;;3.47;2.83;;;;;;;;;;5034745;28;20512;-48
2022/09/12 14:45:25;;;;;;;3.57;2.87;;;;;;;;;;5034677;28;20906;-48